ローマ/フィウミチーノ の空港の天気 - METARとTAF

ローマ・レオナルド・ダ・ビンチ国際空港 ( LIRF / FCO ) - イタリア ローマ
飛行場実況気象(Metar)
観測時間07/14 01:50 CEST (07/13 23:50 UTC)
風向・風速北東 3m/s
視程10km以上
天気現象
なし
気温21℃
湿度35%
気圧1013hPa
METARLIRF 132350Z 04005KT CAVOK 21/05 Q1013 NOSIG
過去の天気等 Google飛行場航空写真 Wunderground天気予報

過去48時間のMETAR

飛行場予報(TAF)
発表時間: 7/14 01:00 CEST (7/13 23:00 UTC)
予報対象時間: 14日2時 CEST ~ 15日8時 CEST
風向・風速北北東 3m/s
視程10km以上
なし
14日10時 CEST ~ 14日12時 CEST に徐々に
風向・風速西 6m/s
14日19時 CEST ~ 14日21時 CEST に徐々に
風向・風速不定 3m/s
TAF LIRF 132300Z 1400/1506 02006KT CAVOK
BECMG 1408/1410 27012KT
BECMG 1417/1419 VRB05KT